createdAt,value
2023-01-09T00:01:55.339Z,99537.84
2023-01-09T00:04:21.774Z,99535.75
2023-01-09T00:06:54.077Z,99535.22
2023-01-09T00:09:22.391Z,99533.09
2023-01-09T00:11:49.238Z,99532.56
2023-01-09T00:14:17.210Z,99539.50
2023-01-09T00:16:43.859Z,99537.41
2023-01-09T00:19:11.189Z,99544.03
2023-01-09T00:21:38.353Z,99536.63
2023-01-09T00:24:05.205Z,99537.94
2023-01-09T00:26:31.780Z,99537.41
2023-01-09T00:28:58.573Z,99544.06
2023-01-09T00:31:24.993Z,99549.13
2023-01-09T00:34:05.204Z,99548.06
2023-01-09T00:36:31.677Z,99555.25
2023-01-09T00:38:58.286Z,99542.47
2023-01-09T00:41:34.956Z,99546.50
2023-01-09T00:44:07.495Z,99539.03
2023-01-09T00:46:38.741Z,99543.31
2023-01-09T00:49:07.079Z,99541.19
2023-01-09T00:51:33.451Z,99546.25
2023-01-09T00:54:01.657Z,99545.72
2023-01-09T00:56:28.136Z,99543.06
2023-01-09T00:58:54.621Z,99547.31
2023-01-09T01:01:21.539Z,99550.50
2023-01-09T01:03:48.062Z,99557.44
2023-01-09T01:06:33.170Z,99552.66
2023-01-09T01:08:59.630Z,99555.59
2023-01-09T01:11:26.279Z,99557.16
2023-01-09T01:13:52.867Z,99555.28
2023-01-09T01:16:19.853Z,99566.22
2023-01-09T01:18:46.390Z,99569.38
2023-01-09T01:21:13.873Z,99569.66
2023-01-09T01:23:40.675Z,99560.34
2023-01-09T01:26:12.944Z,99561.69
2023-01-09T01:28:40.386Z,99561.16
2023-01-09T01:31:07.611Z,99558.50
2023-01-09T01:33:35.120Z,99555.59
2023-01-09T01:36:07.277Z,99558.50
2023-01-09T01:38:34.483Z,99562.72
2023-01-09T01:41:02.409Z,99564.34
2023-01-09T01:43:49.055Z,99569.38
2023-01-09T01:46:17.757Z,99574.69
2023-01-09T01:48:45.280Z,99571.75
2023-01-09T01:51:15.537Z,99574.13
2023-01-09T01:53:48.153Z,99576.78
2023-01-09T01:56:24.426Z,99588.97
2023-01-09T01:59:05.083Z,99582.34
2023-01-09T02:01:33.066Z,99579.41
2023-01-09T02:04:01.809Z,99586.56
2023-01-09T02:06:30.409Z,99587.38
2023-01-09T02:08:57.779Z,99584.44
2023-01-09T02:11:24.865Z,99583.91
2023-01-09T02:13:51.842Z,99586.03
2023-01-09T02:16:47.792Z,99597.94
2023-01-09T02:19:26.021Z,99596.63
2023-01-09T02:22:13.916Z,99588.41
2023-01-09T02:25:03.399Z,99596.34
2023-01-09T02:27:52.422Z,99601.16
2023-01-09T02:30:29.829Z,99595.06
2023-01-09T02:33:13.548Z,99597.97
2023-01-09T02:36:00.326Z,99595.59
2023-01-09T02:38:36.408Z,99597.44
2023-01-09T02:41:26.748Z,99590.81
2023-01-09T02:44:11.651Z,99593.97
2023-01-09T02:46:37.985Z,99591.59
2023-01-09T02:49:04.615Z,99593.44
2023-01-09T02:51:45.192Z,99589.19
2023-01-09T02:55:02.270Z,99590.22
2023-01-09T02:57:54.705Z,99588.41
2023-01-09T03:00:24.077Z,99599.78
2023-01-09T03:03:03.694Z,99591.31
2023-01-09T03:05:40.237Z,99581.47
2023-01-09T03:08:20.506Z,99582.81
2023-01-09T03:10:54.532Z,99580.66
2023-01-09T03:13:24.615Z,99581.19
2023-01-09T03:15:53.814Z,99589.97
2023-01-09T03:18:24.656Z,99593.66
2023-01-09T03:20:51.531Z,99588.09
2023-01-09T03:23:17.967Z,99575.09
2023-01-09T03:25:44.345Z,99578.53
2023-01-09T03:28:26.506Z,99570.81
2023-01-09T03:30:52.885Z,99563.38
2023-01-09T03:33:19.352Z,99569.47
2023-01-09T03:35:45.802Z,99575.88
2023-01-09T03:38:12.200Z,99572.91
2023-01-09T03:40:38.720Z,99576.91
2023-01-09T03:43:05.185Z,99578.75
2023-01-09T03:45:31.539Z,99572.09
2023-01-09T03:47:59.416Z,99571.81
2023-01-09T03:50:25.873Z,99580.84
2023-01-09T03:52:52.322Z,99584.81
2023-01-09T03:55:18.722Z,99589.03
2023-01-09T03:57:45.127Z,99588.25
2023-01-09T04:00:12.176Z,99594.84
2023-01-09T04:02:38.878Z,99594.56
2023-01-09T04:05:05.838Z,99596.44
2023-01-09T04:07:32.189Z,99598.78
2023-01-09T04:09:58.584Z,99588.72
2023-01-09T04:12:25.061Z,99592.41
2023-01-09T04:14:51.446Z,99584.69
2023-01-09T04:17:18.038Z,99593.97
2023-01-09T04:19:44.559Z,99590.00
2023-01-09T04:22:10.893Z,99584.94
2023-01-09T04:24:37.238Z,99600.56
2023-01-09T04:27:03.758Z,99590.78
2023-01-09T04:29:30.116Z,99591.56
2023-01-09T04:31:56.565Z,99593.66
2023-01-09T04:34:25.559Z,99595.75
2023-01-09T04:36:53.185Z,99607.69
2023-01-09T04:39:19.622Z,99595.47
2023-01-09T04:41:49.170Z,99603.19
2023-01-09T04:44:21.522Z,99600.28
2023-01-09T04:46:48.582Z,99604.78
2023-01-09T04:49:15.362Z,99605.88
2023-01-09T04:51:41.838Z,99600.84
2023-01-09T04:54:08.245Z,99600.34
2023-01-09T04:56:35.088Z,99601.16
2023-01-09T04:59:01.430Z,99599.28
2023-01-09T05:01:27.927Z,99595.84
2023-01-09T05:03:54.431Z,99597.19
2023-01-09T05:06:20.796Z,99597.22
2023-01-09T05:08:47.277Z,99599.38
2023-01-09T05:11:13.626Z,99592.50
2023-01-09T05:13:40.207Z,99593.03
2023-01-09T05:16:07.123Z,99588.53
2023-01-09T05:18:33.527Z,99594.38
2023-01-09T05:21:00.309Z,99594.09
2023-01-09T05:23:26.674Z,99585.88
2023-01-09T05:25:53.097Z,99588.28
2023-01-09T05:28:19.438Z,99587.78
2023-01-09T05:30:47.375Z,99577.44
2023-01-09T05:33:13.992Z,99576.38
2023-01-09T05:35:40.429Z,99575.88
2023-01-09T05:38:06.899Z,99577.19
2023-01-09T05:40:40.156Z,99576.16
2023-01-09T05:43:07.633Z,99569.50
2023-01-09T05:45:34.503Z,99570.56
2023-01-09T05:48:01.040Z,99572.44
2023-01-09T05:50:27.463Z,99575.88
2023-01-09T05:52:53.905Z,99577.19
2023-01-09T05:55:20.541Z,99573.50
2023-01-09T05:57:47.106Z,99574.31
2023-01-09T06:00:14.439Z,99570.31
2023-01-09T06:02:40.872Z,99559.47
2023-01-09T06:05:08.147Z,99559.97
2023-01-09T06:07:36.615Z,99568.47
2023-01-09T06:10:03.678Z,99558.69
2023-01-09T06:12:33.356Z,99561.06
2023-01-09T06:14:59.722Z,99556.28
2023-01-09T06:17:26.070Z,99556.84
2023-01-09T06:19:52.508Z,99555.78
2023-01-09T06:22:18.852Z,99563.47
2023-01-09T06:24:45.187Z,99557.09
2023-01-09T06:27:13.067Z,99551.50
2023-01-09T06:29:40.123Z,99558.19
2023-01-09T06:32:06.655Z,99555.25
2023-01-09T06:34:33.028Z,99548.88
2023-01-09T06:36:59.377Z,99553.66
2023-01-09T06:39:25.892Z,99552.34
2023-01-09T06:41:52.293Z,99550.75
2023-01-09T06:44:18.684Z,99548.66
2023-01-09T06:46:45.063Z,99545.44
2023-01-09T06:49:11.459Z,99540.66
2023-01-09T06:51:37.829Z,99541.75
2023-01-09T06:54:04.350Z,99554.50
2023-01-09T06:56:30.739Z,99549.47
2023-01-09T06:58:57.123Z,99555.84
2023-01-09T07:01:23.660Z,99553.44
2023-01-09T07:03:50.198Z,99552.94
2023-01-09T07:06:16.646Z,99551.59
2023-01-09T07:08:43.086Z,99551.84
2023-01-09T07:11:09.495Z,99550.00
2023-01-09T07:13:38.202Z,99547.34
2023-01-09T07:16:05.587Z,99547.06
2023-01-09T07:18:32.058Z,99551.06
2023-01-09T07:20:58.451Z,99541.22
2023-01-09T07:23:24.845Z,99546.28
2023-01-09T07:25:52.221Z,99545.22
2023-01-09T07:28:18.605Z,99555.84
2023-01-09T07:30:45.002Z,99550.53
2023-01-09T07:33:11.397Z,99547.34
2023-01-09T07:35:37.893Z,99556.91
2023-01-09T07:38:04.428Z,99557.69
2023-01-09T07:40:30.889Z,99552.13
2023-01-09T07:42:57.249Z,99566.19
2023-01-09T07:45:23.659Z,99564.88
2023-01-09T07:47:52.156Z,99565.41
2023-01-09T07:50:19.160Z,99559.00
2023-01-09T07:52:46.683Z,99561.16
2023-01-09T07:55:13.462Z,99556.91
2023-01-09T07:57:40.232Z,99560.38
2023-01-09T08:00:10.875Z,99562.22
2023-01-09T08:02:37.381Z,99561.94
2023-01-09T08:05:04.279Z,99560.88
2023-01-09T08:07:30.637Z,99577.09
2023-01-09T08:09:57.099Z,99579.50
2023-01-09T08:12:23.470Z,99572.59
2023-01-09T08:14:51.308Z,99580.28
2023-01-09T08:17:18.348Z,99580.56
2023-01-09T08:19:44.729Z,99589.34
2023-01-09T08:22:11.824Z,99582.66
2023-01-09T08:24:38.229Z,99599.41
2023-01-09T08:27:04.636Z,99593.84
2023-01-09T08:29:31.033Z,99599.97
2023-01-09T08:31:57.510Z,99610.59
2023-01-09T08:34:23.859Z,99609.53
2023-01-09T08:36:50.363Z,99613.25
2023-01-09T08:39:16.764Z,99608.75
2023-01-09T08:42:01.707Z,99619.63
2023-01-09T08:44:46.489Z,99615.66
2023-01-09T08:47:16.776Z,99627.59
2023-01-09T08:49:43.150Z,99624.69
2023-01-09T08:52:09.510Z,99628.69
2023-01-09T08:54:38.963Z,99636.38
2023-01-09T08:57:06.784Z,99650.22
2023-01-09T08:59:33.378Z,99637.44
2023-01-09T09:02:00.629Z,99643.03
2023-01-09T09:04:27.099Z,99653.94
2023-01-09T09:06:53.566Z,99659.53
2023-01-09T09:09:19.968Z,99659.25
2023-01-09T09:11:46.359Z,99673.63
2023-01-09T09:14:31.315Z,99678.41
2023-01-09T09:16:57.706Z,99682.41
2023-01-09T09:19:24.203Z,99697.84
2023-01-09T09:21:50.679Z,99704.75
2023-01-09T09:24:17.093Z,99714.84
2023-01-09T09:26:44.657Z,99711.69
2023-01-09T09:29:11.326Z,99718.88
2023-01-09T09:31:38.605Z,99726.59
2023-01-09T09:34:06.329Z,99725.78
2023-01-09T09:36:33.209Z,99727.13
2023-01-09T09:38:59.922Z,99739.91
2023-01-09T09:41:44.606Z,99735.91
2023-01-09T09:44:53.354Z,99755.88
2023-01-09T09:47:38.176Z,99769.44
2023-01-09T09:50:20.073Z,99771.81
2023-01-09T09:52:52.526Z,99785.69
2023-01-09T09:55:24.085Z,99797.91
2023-01-09T09:57:52.116Z,99807.78
2023-01-09T10:00:21.871Z,99805.63
2023-01-09T10:03:38.582Z,99816.00
2023-01-09T10:06:12.987Z,99821.31
2023-01-09T10:08:53.176Z,99822.94
2023-01-09T10:11:27.629Z,99818.66
2023-01-09T10:14:13.272Z,99829.03
2023-01-09T10:17:05.121Z,99835.97
2023-01-09T10:20:11.646Z,99846.09
2023-01-09T10:22:53.760Z,99849.56
2023-01-09T10:25:40.583Z,99857.00
2023-01-09T10:28:22.206Z,99862.59
2023-01-09T10:30:49.010Z,99858.09
2023-01-09T10:33:27.580Z,99864.72
2023-01-09T10:36:26.045Z,99869.28
2023-01-09T10:38:56.155Z,99877.75
2023-01-09T10:41:34.368Z,99882.81
2023-01-09T10:44:08.165Z,99883.34
2023-01-09T10:46:44.965Z,99897.75
2023-01-09T10:49:16.233Z,99891.88
2023-01-09T10:52:00.755Z,99905.19
2023-01-09T10:54:29.432Z,99907.88
2023-01-09T10:57:04.395Z,99916.94
2023-01-09T10:59:31.109Z,99912.94
2023-01-09T11:01:57.612Z,99917.75
2023-01-09T11:04:30.936Z,99921.44
2023-01-09T11:07:02.276Z,99930.25
2023-01-09T11:09:28.836Z,99930.53
2023-01-09T11:11:55.184Z,99931.25
2023-01-09T11:14:31.304Z,99925.81
2023-01-09T11:17:05.609Z,99924.72
2023-01-09T11:19:33.443Z,99933.28
2023-01-09T11:22:10.758Z,99940.53
2023-01-09T11:24:37.290Z,99943.97
2023-01-09T11:27:12.817Z,99939.41
2023-01-09T11:29:42.795Z,99949.59
2023-01-09T11:32:24.987Z,99942.38
2023-01-09T11:34:51.437Z,99955.94
2023-01-09T11:37:27.368Z,99957.50
2023-01-09T11:39:55.362Z,99963.56
2023-01-09T11:42:44.477Z,99964.03
2023-01-09T11:45:16.694Z,99965.69
2023-01-09T11:47:43.622Z,99971.31
2023-01-09T11:50:24.919Z,99983.06
2023-01-09T11:53:20.341Z,99989.72
2023-01-09T11:55:49.883Z,99988.97
2023-01-09T11:58:18.528Z,99987.88
2023-01-09T12:01:11.685Z,99995.91
2023-01-09T12:03:59.911Z,99998.63
2023-01-09T12:07:01.359Z,99998.13
2023-01-09T12:09:46.452Z,99991.22
2023-01-09T12:12:32.300Z,99987.78
2023-01-09T12:15:09.906Z,99995.00
2023-01-09T12:17:45.183Z,100008.34
2023-01-09T12:20:19.352Z,100013.13
2023-01-09T12:23:05.577Z,100020.34
2023-01-09T12:25:39.175Z,100024.34
2023-01-09T12:28:08.986Z,100022.75
2023-01-09T12:31:02.917Z,100024.06
2023-01-09T12:33:47.441Z,100030.22
2023-01-09T12:36:27.135Z,100033.16
2023-01-09T12:39:02.512Z,100043.00
2023-01-09T12:41:56.090Z,100035.22
2023-01-09T12:44:35.892Z,100043.75
2023-01-09T12:47:22.944Z,100039.53
2023-01-09T12:50:00.631Z,100039.00
2023-01-09T12:53:02.233Z,100049.41
2023-01-09T12:55:34.177Z,100038.75
2023-01-09T12:58:07.288Z,100040.09
2023-01-09T13:00:47.319Z,100053.16
2023-01-09T13:03:35.421Z,100042.47
2023-01-09T13:06:06.507Z,100046.75
2023-01-09T13:09:02.368Z,100050.75
2023-01-09T13:11:37.985Z,100045.16
2023-01-09T13:14:21.584Z,100056.88
2023-01-09T13:16:52.410Z,100063.56
2023-01-09T13:19:31.703Z,100071.00
2023-01-09T13:21:58.765Z,100068.34
2023-01-09T13:24:34.383Z,100077.94
2023-01-09T13:27:05.723Z,100082.47
2023-01-09T13:29:37.590Z,100081.97
2023-01-09T13:32:42.139Z,100088.63
2023-01-09T13:35:14.584Z,100084.38
2023-01-09T13:37:42.694Z,100094.22
2023-01-09T13:40:21.047Z,100094.22
2023-01-09T13:43:09.696Z,100100.34
2023-01-09T13:45:37.590Z,100103.81
2023-01-09T13:48:17.781Z,100107.81
2023-01-09T13:50:46.185Z,100112.09
2023-01-09T13:53:18.530Z,100113.41
2023-01-09T13:55:57.305Z,100120.09
2023-01-09T13:58:26.563Z,100133.94
2023-01-09T14:00:56.022Z,100138.75
2023-01-09T14:03:42.788Z,100136.88
2023-01-09T14:06:14.216Z,100143.25
2023-01-09T14:08:41.915Z,100150.19
2023-01-09T14:11:09.262Z,100157.63
2023-01-09T14:13:45.877Z,100167.22
2023-01-09T14:16:23.809Z,100171.22
2023-01-09T14:19:26.708Z,100170.13
2023-01-09T14:21:55.878Z,100178.63
2023-01-09T14:24:30.523Z,100181.53
2023-01-09T14:26:59.914Z,100191.97
2023-01-09T14:29:29.403Z,100195.13
2023-01-09T14:32:21.147Z,100195.97
2023-01-09T14:34:55.995Z,100210.88
2023-01-09T14:37:23.058Z,100210.38
2023-01-09T14:39:50.942Z,100221.56
2023-01-09T14:42:23.711Z,100228.25
2023-01-09T14:45:00.668Z,100232.78
2023-01-09T14:47:44.673Z,100238.41
2023-01-09T14:50:38.219Z,100246.16
2023-01-09T14:53:10.006Z,100251.47
2023-01-09T14:55:42.440Z,100262.66
2023-01-09T14:58:13.000Z,100274.88
2023-01-09T15:00:52.549Z,100283.94
2023-01-09T15:03:21.072Z,100289.22
2023-01-09T15:05:48.640Z,100292.91
2023-01-09T15:08:19.171Z,100301.13
2023-01-09T15:10:47.903Z,100307.25
2023-01-09T15:13:18.561Z,100312.56
2023-01-09T15:15:47.684Z,100314.06
2023-01-09T15:18:27.457Z,100323.09
2023-01-09T15:21:02.804Z,100333.19
2023-01-09T15:23:31.344Z,100334.19
2023-01-09T15:26:13.177Z,100337.06
2023-01-09T15:28:43.058Z,100341.31
2023-01-09T15:31:18.295Z,100352.19
2023-01-09T15:33:47.358Z,100354.28
2023-01-09T15:36:21.548Z,100360.06
2023-01-09T15:38:50.492Z,100363.22
2023-01-09T15:41:42.689Z,100372.19
2023-01-09T15:44:16.003Z,100365.78
2023-01-09T15:46:46.227Z,100376.94
2023-01-09T15:49:13.767Z,100383.78
2023-01-09T15:51:43.365Z,100383.72
2023-01-09T15:54:15.868Z,100393.00
2023-01-09T15:56:44.481Z,100395.34
2023-01-09T15:59:24.668Z,100386.81
2023-01-09T16:02:18.729Z,100408.66
2023-01-09T16:04:46.182Z,100402.56
2023-01-09T16:07:21.433Z,100402.00
2023-01-09T16:09:52.454Z,100416.63
2023-01-09T16:12:25.107Z,100412.38
2023-01-09T16:14:54.740Z,100425.09
2023-01-09T16:17:26.579Z,100436.31
2023-01-09T16:20:13.923Z,100441.63
2023-01-09T16:22:55.126Z,100447.50
2023-01-09T16:25:25.074Z,100447.78
2023-01-09T16:28:21.886Z,100444.84
2023-01-09T16:30:56.159Z,100451.22
2023-01-09T16:33:27.651Z,100457.03
2023-01-09T16:35:54.180Z,100463.09
2023-01-09T16:38:21.326Z,100468.34
2023-01-09T16:41:19.954Z,100470.22
2023-01-09T16:43:46.770Z,100481.91
2023-01-09T16:46:15.055Z,100487.47
2023-01-09T16:48:42.129Z,100485.13
2023-01-09T16:51:19.066Z,100493.09
2023-01-09T16:53:45.545Z,100500.81
2023-01-09T16:56:16.887Z,100500.81
2023-01-09T16:58:43.267Z,100504.78
2023-01-09T17:01:10.706Z,100504.78
2023-01-09T17:03:37.160Z,100504.22
2023-01-09T17:06:04.598Z,100506.00
2023-01-09T17:08:34.249Z,100510.84
2023-01-09T17:11:00.917Z,100510.78
2023-01-09T17:13:27.777Z,100516.91
2023-01-09T17:15:57.039Z,100531.00
2023-01-09T17:18:26.057Z,100541.63
2023-01-09T17:20:58.640Z,100537.13
2023-01-09T17:23:25.888Z,100537.13
2023-01-09T17:26:15.765Z,100539.53
2023-01-09T17:28:49.106Z,100550.19
2023-01-09T17:31:15.699Z,100561.38
2023-01-09T17:33:42.656Z,100564.28
2023-01-09T17:36:25.095Z,100565.81
2023-01-09T17:38:54.857Z,100564.69
2023-01-09T17:41:23.294Z,100578.47
2023-01-09T17:43:49.698Z,100577.09
2023-01-09T17:46:18.632Z,100585.34
2023-01-09T17:48:46.131Z,100590.66
2023-01-09T17:51:12.485Z,100586.13
2023-01-09T17:53:38.849Z,100595.47
2023-01-09T17:56:05.440Z,100610.38
2023-01-09T17:58:32.136Z,100602.19
2023-01-09T18:00:59.095Z,100607.25
2023-01-09T18:03:30.911Z,100610.72
2023-01-09T18:05:57.363Z,100622.41
2023-01-09T18:08:23.766Z,100633.84
2023-01-09T18:10:50.633Z,100641.56
2023-01-09T18:13:17.393Z,100642.38
2023-01-09T18:15:44.529Z,100647.72
2023-01-09T18:18:11.649Z,100662.03
2023-01-09T18:20:41.502Z,100663.91
2023-01-09T18:23:09.110Z,100670.81
2023-01-09T18:25:39.091Z,100674.31
2023-01-09T18:28:05.571Z,100676.97
2023-01-09T18:30:32.000Z,100685.72
2023-01-09T18:32:58.433Z,100696.16
2023-01-09T18:35:24.905Z,100698.00
2023-01-09T18:37:51.304Z,100711.06
2023-01-09T18:40:17.842Z,100711.84
2023-01-09T18:42:46.191Z,100724.13
2023-01-09T18:45:12.594Z,100727.34
2023-01-09T18:47:39.044Z,100734.28
2023-01-09T18:50:05.957Z,100728.97
2023-01-09T18:52:32.302Z,100728.97
2023-01-09T18:54:58.635Z,100746.53
2023-01-09T18:57:25.586Z,100750.56
2023-01-09T18:59:51.965Z,100770.00
2023-01-09T19:02:21.173Z,100769.75
2023-01-09T19:04:47.668Z,100780.41
2023-01-09T19:07:14.400Z,100796.63
2023-01-09T19:09:40.866Z,100793.13
2023-01-09T19:12:07.535Z,100798.19
2023-01-09T19:14:33.965Z,100798.44
2023-01-09T19:17:01.291Z,100808.50
2023-01-09T19:19:30.117Z,100798.13
2023-01-09T19:21:57.547Z,100810.38
2023-01-09T19:24:24.841Z,100818.34
2023-01-09T19:26:51.770Z,100815.91
2023-01-09T19:29:18.165Z,100822.06
2023-01-09T19:31:46.608Z,100830.75
2023-01-09T19:34:13.561Z,100832.25
2023-01-09T19:36:40.181Z,100851.81
2023-01-09T19:39:07.221Z,100860.28
2023-01-09T19:41:33.660Z,100869.28
2023-01-09T19:44:00.151Z,100866.06
2023-01-09T19:46:27.155Z,100871.13
2023-01-09T19:48:54.125Z,100874.50
2023-01-09T19:51:21.567Z,100880.28
2023-01-09T19:53:58.124Z,100880.41
2023-01-09T19:56:28.312Z,100896.00
2023-01-09T19:59:01.180Z,100905.38
2023-01-09T20:01:33.266Z,100899.16
2023-01-09T20:04:07.510Z,100904.78
2023-01-09T20:06:35.254Z,100913.47
2023-01-09T20:09:04.385Z,100908.06
2023-01-09T20:11:32.379Z,100920.63
2023-01-09T20:13:59.290Z,100916.25
2023-01-09T20:16:29.785Z,100921.56
2023-01-09T20:18:58.141Z,100928.50
2023-01-09T20:21:26.440Z,100932.19
2023-01-09T20:23:54.663Z,100934.59
2023-01-09T20:26:22.724Z,100944.41
2023-01-09T20:28:49.459Z,100945.22
2023-01-09T20:31:18.390Z,100944.41
2023-01-09T20:33:48.735Z,100953.88
2023-01-09T20:36:15.693Z,100957.81
2023-01-09T20:38:43.201Z,100984.94
2023-01-09T20:41:25.523Z,100979.06
2023-01-09T20:43:55.706Z,100971.94
2023-01-09T20:46:24.725Z,100983.72
2023-01-09T20:48:51.184Z,100990.41
2023-01-09T20:51:18.140Z,100993.66
2023-01-09T20:53:46.447Z,101001.44
2023-01-09T20:56:13.254Z,101001.28
2023-01-09T20:58:42.199Z,101018.13
2023-01-09T21:01:11.668Z,101013.16
2023-01-09T21:03:39.172Z,101019.38
2023-01-09T21:06:11.605Z,101013.13
2023-01-09T21:08:38.364Z,101019.56
2023-01-09T21:11:05.363Z,101022.78
2023-01-09T21:13:31.995Z,101025.53
2023-01-09T21:16:09.617Z,101029.06
2023-01-09T21:18:36.828Z,101028.47
2023-01-09T21:21:09.487Z,101029.66
2023-01-09T21:23:36.501Z,101043.97
2023-01-09T21:26:09.791Z,101043.28
2023-01-09T21:28:49.138Z,101046.53
2023-01-09T21:31:21.792Z,101054.94
2023-01-09T21:33:48.652Z,101051.03
2023-01-09T21:36:15.806Z,101056.78
2023-01-09T21:38:42.214Z,101066.22
2023-01-09T21:41:27.265Z,101079.16
2023-01-09T21:44:12.104Z,101077.75
2023-01-09T21:46:55.729Z,101078.63
2023-01-09T21:49:25.306Z,101075.25
2023-01-09T21:51:55.184Z,101088.53
2023-01-09T21:54:25.540Z,101092.94
2023-01-09T21:56:52.782Z,101095.81
2023-01-09T21:59:19.814Z,101106.88
2023-01-09T22:01:48.568Z,101112.41
2023-01-09T22:04:16.742Z,101112.19
2023-01-09T22:06:43.361Z,101121.53
2023-01-09T22:09:10.670Z,101121.53
2023-01-09T22:11:41.002Z,101125.03
2023-01-09T22:14:07.428Z,101123.41
2023-01-09T22:16:34.056Z,101122.00
2023-01-09T22:19:00.651Z,101128.72
2023-01-09T22:21:27.184Z,101143.16
2023-01-09T22:23:53.727Z,101144.34
2023-01-09T22:26:21.040Z,101144.72
2023-01-09T22:28:48.417Z,101153.06
2023-01-09T22:31:21.287Z,101158.13
2023-01-09T22:33:55.553Z,101173.41
2023-01-09T22:36:21.921Z,101178.03
2023-01-09T22:38:48.259Z,101182.13
2023-01-09T22:41:14.871Z,101190.44
2023-01-09T22:43:41.327Z,101203.91
2023-01-09T22:46:11.318Z,101210.59
2023-01-09T22:48:38.883Z,101210.38
2023-01-09T22:51:07.637Z,101210.97
2023-01-09T22:53:34.574Z,101216.28
2023-01-09T22:56:05.586Z,101222.41
2023-01-09T22:58:32.229Z,101229.31
2023-01-09T23:00:59.035Z,101226.91
2023-01-09T23:03:26.336Z,101236.94
2023-01-09T23:06:10.629Z,101241.09
2023-01-09T23:08:37.469Z,101246.22
2023-01-09T23:11:06.793Z,101242.97
2023-01-09T23:13:33.254Z,101251.19
2023-01-09T23:15:59.846Z,101258.53
2023-01-09T23:18:26.413Z,101262.00
2023-01-09T23:20:58.013Z,101262.22
2023-01-09T23:23:26.121Z,101264.09
2023-01-09T23:25:55.336Z,101277.56
2023-01-09T23:28:22.931Z,101286.34
2023-01-09T23:30:49.488Z,101280.81
2023-01-09T23:33:16.671Z,101293.31
2023-01-09T23:35:43.764Z,101294.09
2023-01-09T23:38:13.982Z,101301.84
2023-01-09T23:40:41.553Z,101302.25
2023-01-09T23:43:14.259Z,101307.31
2023-01-09T23:45:45.872Z,101305.69
2023-01-09T23:48:15.097Z,101314.69
2023-01-09T23:50:50.282Z,101314.09
2023-01-09T23:53:18.315Z,101309.59
2023-01-09T23:55:45.027Z,101312.69
2023-01-09T23:58:11.570Z,101316.00
